createdAt,value
2017-09-22T00:00:35.509Z,11.70
2017-09-22T00:03:01.966Z,11.60
2017-09-22T00:05:28.424Z,11.70
2017-09-22T00:07:55.639Z,11.50
2017-09-22T00:10:22.083Z,11.50
2017-09-22T00:12:48.543Z,11.40
2017-09-22T00:15:14.983Z,11.40
2017-09-22T00:17:42.158Z,11.40
2017-09-22T00:20:08.617Z,11.40
2017-09-22T00:22:35.233Z,11.40
2017-09-22T00:25:01.997Z,11.40
2017-09-22T00:27:28.423Z,11.40
2017-09-22T00:29:54.874Z,11.40
2017-09-22T00:32:21.312Z,11.40
2017-09-22T00:34:47.811Z,11.40
2017-09-22T00:37:14.338Z,11.30
2017-09-22T00:39:40.858Z,11.20
2017-09-22T00:42:08.089Z,11.30
2017-09-22T00:44:35.360Z,11.30
2017-09-22T00:47:02.625Z,11.40
2017-09-22T00:49:29.125Z,11.30
2017-09-22T00:51:55.580Z,11.40
2017-09-22T00:54:22.759Z,11.40
2017-09-22T00:56:49.236Z,11.40
2017-09-22T00:59:17.271Z,11.40
2017-09-22T01:01:43.797Z,11.40
2017-09-22T01:04:10.245Z,11.50
2017-09-22T01:06:36.692Z,11.60
2017-09-22T01:09:03.211Z,11.60
2017-09-22T01:11:29.691Z,11.70
2017-09-22T01:13:56.115Z,11.70
2017-09-22T01:16:22.595Z,11.80
2017-09-22T01:18:49.054Z,11.90
2017-09-22T01:21:15.555Z,11.90
2017-09-22T01:23:42.013Z,11.90
2017-09-22T01:26:08.499Z,12.00
2017-09-22T01:28:35.708Z,12.00
2017-09-22T01:31:02.315Z,12.00
2017-09-22T01:33:28.808Z,12.10
2017-09-22T01:35:55.265Z,12.10
2017-09-22T01:38:22.453Z,12.00
2017-09-22T01:40:48.924Z,12.00
2017-09-22T01:43:15.398Z,12.00
2017-09-22T01:45:41.923Z,12.00
2017-09-22T01:48:09.144Z,12.20
2017-09-22T01:50:35.599Z,12.10
2017-09-22T01:53:02.837Z,12.20
2017-09-22T01:55:29.289Z,12.20
2017-09-22T01:57:56.464Z,12.20
2017-09-22T02:00:23.088Z,12.20
2017-09-22T02:02:49.576Z,12.20
2017-09-22T02:05:16.036Z,12.20
2017-09-22T02:07:43.216Z,12.30
2017-09-22T02:10:09.699Z,12.20
2017-09-22T02:12:37.658Z,12.20
2017-09-22T02:15:04.125Z,12.20
2017-09-22T02:17:31.307Z,12.30
2017-09-22T02:19:57.770Z,12.30
2017-09-22T02:22:24.200Z,12.30
2017-09-22T02:24:50.652Z,12.30
2017-09-22T02:27:17.138Z,12.40
2017-09-22T02:29:43.565Z,12.40
2017-09-22T02:32:10.051Z,12.40
2017-09-22T02:34:37.990Z,12.40
2017-09-22T02:37:04.532Z,12.40
2017-09-22T02:39:31.043Z,12.40
2017-09-22T02:41:57.531Z,12.40
2017-09-22T02:44:23.990Z,12.30
2017-09-22T02:46:51.512Z,12.30
2017-09-22T02:49:17.987Z,12.30
2017-09-22T02:51:45.200Z,12.30
2017-09-22T02:54:11.648Z,12.30
2017-09-22T02:56:38.131Z,12.40
2017-09-22T02:59:04.574Z,12.40
2017-09-22T03:01:31.033Z,12.40
2017-09-22T03:03:57.490Z,12.40
2017-09-22T03:06:23.912Z,12.50
2017-09-22T03:08:50.344Z,12.50
2017-09-22T03:11:16.799Z,12.50
2017-09-22T03:13:43.979Z,12.50
2017-09-22T03:16:10.445Z,12.50
2017-09-22T03:18:36.871Z,12.60
2017-09-22T03:21:03.324Z,12.60
2017-09-22T03:23:29.788Z,12.70
2017-09-22T03:25:56.993Z,12.60
2017-09-22T03:28:23.466Z,12.60
2017-09-22T03:30:50.638Z,12.70
2017-09-22T03:33:17.149Z,12.70
2017-09-22T03:35:44.401Z,12.70
2017-09-22T03:38:11.757Z,12.60
2017-09-22T03:40:38.957Z,12.60
2017-09-22T03:43:05.409Z,12.60
2017-09-22T03:45:31.880Z,12.60
2017-09-22T03:47:59.071Z,12.60
2017-09-22T03:50:25.535Z,12.60
2017-09-22T03:52:51.975Z,12.60
2017-09-22T03:55:18.512Z,12.60
2017-09-22T03:57:45.028Z,12.60
2017-09-22T04:00:11.514Z,12.60
2017-09-22T04:02:37.942Z,12.60
2017-09-22T04:05:05.119Z,12.50
2017-09-22T04:07:31.567Z,12.50
2017-09-22T04:09:58.001Z,12.50
2017-09-22T04:12:24.450Z,12.60
2017-09-22T04:14:50.916Z,12.70
2017-09-22T04:17:18.108Z,12.60
2017-09-22T04:19:44.562Z,12.60
2017-09-22T04:22:11.024Z,12.50
2017-09-22T04:24:38.262Z,12.30
2017-09-22T04:27:04.776Z,12.30
2017-09-22T04:29:31.283Z,12.20
2017-09-22T04:31:57.751Z,12.20
2017-09-22T04:34:24.197Z,12.10
2017-09-22T04:36:50.653Z,12.10
2017-09-22T04:39:17.919Z,12.00
2017-09-22T04:41:44.382Z,11.90
2017-09-22T04:44:10.993Z,12.00
2017-09-22T04:46:37.411Z,12.00
2017-09-22T04:49:04.615Z,11.90
2017-09-22T04:51:31.078Z,11.90
2017-09-22T04:53:57.510Z,11.90
2017-09-22T04:56:24.007Z,12.00
2017-09-22T04:58:50.469Z,11.90
2017-09-22T05:01:16.926Z,11.90
2017-09-22T05:03:44.116Z,12.00
2017-09-22T05:06:10.632Z,12.00
2017-09-22T05:08:37.094Z,12.00
2017-09-22T05:11:03.602Z,12.00
2017-09-22T05:13:30.136Z,12.00
2017-09-22T05:15:56.722Z,12.00
2017-09-22T05:18:23.257Z,11.90
2017-09-22T05:20:49.862Z,11.80
2017-09-22T05:23:16.410Z,11.80
2017-09-22T05:25:42.921Z,11.80
2017-09-22T05:28:09.387Z,11.80
2017-09-22T05:30:35.900Z,12.00
2017-09-22T05:33:02.366Z,12.10
2017-09-22T05:35:28.819Z,12.10
2017-09-22T05:37:55.273Z,12.20
2017-09-22T05:40:22.464Z,12.30
2017-09-22T05:42:48.913Z,12.30
2017-09-22T05:45:15.388Z,12.40
2017-09-22T05:47:42.619Z,12.50
2017-09-22T05:50:09.071Z,12.50
2017-09-22T05:52:36.259Z,12.60
2017-09-22T05:55:02.732Z,12.60
2017-09-22T05:57:29.205Z,12.70
2017-09-22T05:59:56.394Z,12.80
2017-09-22T06:02:22.851Z,12.80
2017-09-22T06:04:49.292Z,12.90
2017-09-22T06:07:15.741Z,13.10
2017-09-22T06:09:42.928Z,13.10
2017-09-22T06:12:09.386Z,13.10
2017-09-22T06:14:35.840Z,13.20
2017-09-22T06:17:02.412Z,13.20
2017-09-22T06:19:28.887Z,13.20
2017-09-22T06:21:55.309Z,13.30
2017-09-22T06:24:21.748Z,13.20
2017-09-22T06:26:49.188Z,13.40
2017-09-22T06:29:15.630Z,13.50
2017-09-22T06:31:42.075Z,13.50
2017-09-22T06:34:08.955Z,13.60
2017-09-22T06:36:35.386Z,13.60
2017-09-22T06:39:01.804Z,13.60
2017-09-22T06:41:28.280Z,13.70
2017-09-22T06:43:54.727Z,13.80
2017-09-22T06:46:21.196Z,13.90
2017-09-22T06:48:47.637Z,14.00
2017-09-22T06:51:14.127Z,14.10
2017-09-22T06:53:40.627Z,14.10
2017-09-22T06:56:08.753Z,14.20
2017-09-22T06:58:35.241Z,14.20
2017-09-22T07:01:02.433Z,14.40
2017-09-22T07:03:28.922Z,14.40
2017-09-22T07:05:56.104Z,14.40
2017-09-22T07:08:22.629Z,14.40
2017-09-22T07:10:49.092Z,14.40
2017-09-22T07:13:15.597Z,14.40
2017-09-22T07:15:42.128Z,14.40
2017-09-22T07:18:08.624Z,14.40
2017-09-22T07:20:35.107Z,14.40
2017-09-22T07:23:01.560Z,14.30
2017-09-22T07:25:27.995Z,14.40
2017-09-22T07:27:54.436Z,14.40
2017-09-22T07:30:21.668Z,14.40
2017-09-22T07:32:48.114Z,14.40
2017-09-22T07:35:14.559Z,14.40
2017-09-22T07:37:41.021Z,14.50
2017-09-22T07:40:08.229Z,14.50
2017-09-22T07:42:34.676Z,14.50
2017-09-22T07:45:01.135Z,14.50
2017-09-22T07:47:27.656Z,14.50
2017-09-22T07:49:54.180Z,14.60
2017-09-22T07:52:20.635Z,14.60
2017-09-22T07:54:47.095Z,14.60
2017-09-22T07:57:14.285Z,14.70
2017-09-22T07:59:40.768Z,14.70
2017-09-22T08:02:07.922Z,14.70
2017-09-22T08:04:35.067Z,14.70
2017-09-22T08:07:02.422Z,14.70
2017-09-22T08:09:29.591Z,14.60
2017-09-22T08:11:56.083Z,14.60
2017-09-22T08:14:22.504Z,14.70
2017-09-22T08:16:48.893Z,14.70
2017-09-22T08:19:15.313Z,14.70
2017-09-22T08:21:41.728Z,14.60
2017-09-22T08:24:08.204Z,14.60
2017-09-22T08:26:34.621Z,14.60
2017-09-22T08:29:01.017Z,14.60
2017-09-22T08:31:27.429Z,14.70
2017-09-22T08:33:53.809Z,14.70
2017-09-22T08:36:20.984Z,14.80
2017-09-22T08:38:47.404Z,14.80
2017-09-22T08:41:13.808Z,14.90
2017-09-22T08:43:40.229Z,14.90
2017-09-22T08:46:08.118Z,14.90
2017-09-22T08:48:35.262Z,15.00
2017-09-22T08:51:01.689Z,14.90
2017-09-22T08:53:28.082Z,15.00
2017-09-22T08:55:54.501Z,15.10
2017-09-22T08:58:20.893Z,15.10
2017-09-22T09:00:48.034Z,15.10
2017-09-22T09:03:14.460Z,15.10
2017-09-22T09:05:41.633Z,15.10
2017-09-22T09:08:08.801Z,15.10
2017-09-22T09:10:35.287Z,15.10
2017-09-22T09:13:01.740Z,15.10
2017-09-22T09:15:28.149Z,15.10
2017-09-22T09:17:54.616Z,15.10
2017-09-22T09:20:21.786Z,15.10
2017-09-22T09:22:48.197Z,15.10
2017-09-22T09:25:15.380Z,15.10
2017-09-22T09:27:41.801Z,15.00
2017-09-22T09:30:08.237Z,15.10
2017-09-22T09:32:34.651Z,15.00
2017-09-22T09:35:01.786Z,15.00
2017-09-22T09:37:28.973Z,15.00
2017-09-22T09:39:55.397Z,15.00
2017-09-22T09:42:21.833Z,15.00
2017-09-22T09:44:48.264Z,15.00
2017-09-22T09:47:14.728Z,15.00
2017-09-22T09:49:41.142Z,15.00
2017-09-22T09:52:07.561Z,15.00
2017-09-22T09:54:34.004Z,15.10
2017-09-22T09:57:00.397Z,15.10
2017-09-22T09:59:26.789Z,15.20
2017-09-22T10:01:53.196Z,15.20
2017-09-22T10:04:19.683Z,15.10
2017-09-22T10:06:46.073Z,15.10
2017-09-22T10:09:12.493Z,15.10
2017-09-22T10:11:38.934Z,15.00
2017-09-22T10:14:05.400Z,15.00
2017-09-22T10:16:31.799Z,15.10
2017-09-22T10:18:58.261Z,15.10
2017-09-22T10:21:24.689Z,15.10
2017-09-22T10:23:51.100Z,15.20
2017-09-22T10:26:17.531Z,15.20
2017-09-22T10:28:43.912Z,15.20
2017-09-22T10:31:10.409Z,15.10
2017-09-22T10:33:36.801Z,15.10
2017-09-22T10:36:04.131Z,15.20
2017-09-22T10:38:30.534Z,15.20
2017-09-22T10:40:56.935Z,15.10
2017-09-22T10:43:23.325Z,15.20
2017-09-22T10:45:49.786Z,15.30
2017-09-22T10:48:16.968Z,15.30
2017-09-22T10:50:43.980Z,15.30
2017-09-22T10:53:11.176Z,15.30
2017-09-22T10:55:37.580Z,15.30
2017-09-22T10:58:04.757Z,15.30
2017-09-22T11:00:31.170Z,15.20
2017-09-22T11:02:57.606Z,15.10
2017-09-22T11:05:24.020Z,15.10
2017-09-22T11:07:50.426Z,15.10
2017-09-22T11:10:16.813Z,15.00
2017-09-22T11:12:43.233Z,15.10
2017-09-22T11:15:09.731Z,15.10
2017-09-22T11:17:36.161Z,15.10
2017-09-22T11:20:02.834Z,15.10
2017-09-22T11:22:29.244Z,15.00
2017-09-22T11:24:56.199Z,15.00
2017-09-22T11:27:23.337Z,15.10
2017-09-22T11:29:49.793Z,15.00
2017-09-22T11:32:16.232Z,15.20
2017-09-22T11:34:42.663Z,15.30
2017-09-22T11:37:09.065Z,15.50
2017-09-22T11:39:36.317Z,15.50
2017-09-22T11:42:02.754Z,15.60
2017-09-22T11:44:29.144Z,15.60
2017-09-22T11:46:55.517Z,15.60
2017-09-22T11:49:21.970Z,15.70
2017-09-22T11:51:49.111Z,15.60
2017-09-22T11:54:16.249Z,15.60
2017-09-22T11:56:42.672Z,15.50
2017-09-22T11:59:09.814Z,15.70
2017-09-22T12:01:36.220Z,15.60
2017-09-22T12:04:02.624Z,15.70
2017-09-22T12:06:29.059Z,15.80
2017-09-22T12:08:55.476Z,15.90
2017-09-22T12:11:22.600Z,15.90
2017-09-22T12:13:49.015Z,15.80
2017-09-22T12:16:15.463Z,15.90
2017-09-22T12:18:41.880Z,15.80
2017-09-22T12:21:08.377Z,15.80
2017-09-22T12:23:34.797Z,15.90
2017-09-22T12:26:01.210Z,16.00
2017-09-22T12:28:28.428Z,15.90
2017-09-22T12:30:54.815Z,15.90
2017-09-22T12:33:21.973Z,16.00
2017-09-22T12:35:48.383Z,16.00
2017-09-22T12:38:15.508Z,16.10
2017-09-22T12:40:42.284Z,16.10
2017-09-22T12:43:08.742Z,15.90
2017-09-22T12:45:35.144Z,16.00
2017-09-22T12:48:02.260Z,16.10
2017-09-22T12:50:28.681Z,16.10
2017-09-22T12:52:55.813Z,16.10
2017-09-22T12:55:22.229Z,16.10
2017-09-22T12:57:48.628Z,16.20
2017-09-22T13:00:15.020Z,16.30
2017-09-22T13:02:41.408Z,16.30
2017-09-22T13:05:08.541Z,16.20
2017-09-22T13:07:34.951Z,16.10
2017-09-22T13:10:01.361Z,16.20
2017-09-22T13:12:27.843Z,16.20
2017-09-22T13:14:54.880Z,16.10
2017-09-22T13:17:21.272Z,16.10
2017-09-22T13:19:47.686Z,16.10
2017-09-22T13:22:14.120Z,16.00
2017-09-22T13:24:40.551Z,16.10
2017-09-22T13:27:06.984Z,16.10
2017-09-22T13:29:33.430Z,16.30
2017-09-22T13:31:59.834Z,16.30
2017-09-22T13:34:27.002Z,16.30
2017-09-22T13:36:53.401Z,16.30
2017-09-22T13:39:19.848Z,16.30
2017-09-22T13:41:46.304Z,16.40
2017-09-22T13:44:12.780Z,16.40
2017-09-22T13:46:39.194Z,16.40
2017-09-22T13:49:05.607Z,16.40
2017-09-22T13:51:32.056Z,16.30
2017-09-22T13:53:58.495Z,16.30
2017-09-22T13:56:24.932Z,16.40
2017-09-22T13:58:51.380Z,16.40
2017-09-22T14:01:17.757Z,16.50
2017-09-22T14:03:44.173Z,16.40
2017-09-22T14:06:11.595Z,16.40
2017-09-22T14:08:37.969Z,16.30
2017-09-22T14:11:05.141Z,16.20
2017-09-22T14:13:31.555Z,16.20
2017-09-22T14:15:58.765Z,16.10
2017-09-22T14:18:25.204Z,16.10
2017-09-22T14:20:51.630Z,16.10
2017-09-22T14:23:18.052Z,16.30
2017-09-22T14:25:44.436Z,16.30
2017-09-22T14:28:11.594Z,16.30
2017-09-22T14:30:38.008Z,16.30
2017-09-22T14:33:04.382Z,16.40
2017-09-22T14:35:30.869Z,16.40
2017-09-22T14:37:57.295Z,16.40
2017-09-22T14:40:23.676Z,16.40
2017-09-22T14:42:50.135Z,16.30
2017-09-22T14:45:16.536Z,16.20
2017-09-22T14:47:42.937Z,16.20
2017-09-22T14:50:09.345Z,16.20
2017-09-22T14:52:35.737Z,16.20
2017-09-22T14:55:02.139Z,16.10
2017-09-22T14:57:29.332Z,16.00
2017-09-22T14:59:55.757Z,15.90
2017-09-22T15:02:22.160Z,15.90
2017-09-22T15:04:49.307Z,15.90
2017-09-22T15:07:16.442Z,15.90
2017-09-22T15:09:42.850Z,15.90
2017-09-22T15:12:09.256Z,15.90
2017-09-22T15:14:35.685Z,15.90
2017-09-22T15:17:02.110Z,15.80
2017-09-22T15:19:28.488Z,15.80
2017-09-22T15:21:54.855Z,15.70
2017-09-22T15:24:22.028Z,15.70
2017-09-22T15:26:48.460Z,15.70
2017-09-22T15:29:14.852Z,15.70
2017-09-22T15:31:41.262Z,15.70
2017-09-22T15:34:07.652Z,15.60
2017-09-22T15:36:34.191Z,15.60
2017-09-22T15:39:00.653Z,15.50
2017-09-22T15:41:27.074Z,15.50
2017-09-22T15:43:53.490Z,15.40
2017-09-22T15:46:19.940Z,15.30
2017-09-22T15:48:46.382Z,15.30
2017-09-22T15:51:12.831Z,15.30
2017-09-22T15:53:39.236Z,15.30
2017-09-22T15:56:05.647Z,15.30
2017-09-22T15:58:32.802Z,15.20
2017-09-22T16:00:59.219Z,15.20
2017-09-22T16:03:26.356Z,15.00
2017-09-22T16:05:52.724Z,15.00
2017-09-22T16:08:19.128Z,15.00
2017-09-22T16:10:46.283Z,14.90
2017-09-22T16:13:13.423Z,14.90
2017-09-22T16:15:40.566Z,14.90
2017-09-22T16:18:07.728Z,14.80
2017-09-22T16:20:34.893Z,14.80
2017-09-22T16:23:01.388Z,14.80
2017-09-22T16:25:28.608Z,14.70
2017-09-22T16:27:55.050Z,14.70
2017-09-22T16:30:21.460Z,14.70
2017-09-22T16:32:47.883Z,14.70
2017-09-22T16:35:14.310Z,14.70
2017-09-22T16:37:40.691Z,14.70
2017-09-22T16:40:07.118Z,14.80
2017-09-22T16:42:33.525Z,14.80
2017-09-22T16:44:59.915Z,14.90
2017-09-22T16:47:27.791Z,14.70
2017-09-22T16:49:54.983Z,14.60
2017-09-22T16:52:21.386Z,14.60
2017-09-22T16:54:47.839Z,14.60
2017-09-22T16:57:14.259Z,14.50
2017-09-22T16:59:40.718Z,14.50
2017-09-22T17:02:07.146Z,14.50
2017-09-22T17:04:33.556Z,14.30
2017-09-22T17:07:00.019Z,14.20
2017-09-22T17:09:26.396Z,14.10
2017-09-22T17:11:52.833Z,14.10
2017-09-22T17:14:19.980Z,14.10
2017-09-22T17:16:47.128Z,14.00
2017-09-22T17:19:13.583Z,14.00
2017-09-22T17:21:40.009Z,13.80
2017-09-22T17:24:07.157Z,13.50
2017-09-22T17:26:34.311Z,13.40
2017-09-22T17:29:01.469Z,13.30
2017-09-22T17:31:28.767Z,13.30
2017-09-22T17:33:55.172Z,13.20
2017-09-22T17:36:21.623Z,13.20
2017-09-22T17:38:48.822Z,13.00
2017-09-22T17:41:15.968Z,13.10
2017-09-22T17:43:43.857Z,12.90
2017-09-22T17:46:10.275Z,12.90
2017-09-22T17:48:37.499Z,12.90
2017-09-22T17:51:03.877Z,12.80
2017-09-22T17:53:30.586Z,12.80
2017-09-22T17:55:57.790Z,12.70
2017-09-22T17:58:24.197Z,12.70
2017-09-22T18:00:51.349Z,12.70
2017-09-22T18:03:18.516Z,12.60
2017-09-22T18:05:44.911Z,12.60
2017-09-22T18:08:12.109Z,12.50
2017-09-22T18:10:38.558Z,12.50
2017-09-22T18:13:04.961Z,12.50
2017-09-22T18:15:31.367Z,12.40
2017-09-22T18:17:58.509Z,12.30
2017-09-22T18:20:24.941Z,12.30
2017-09-22T18:22:53.061Z,12.20
2017-09-22T18:25:19.524Z,12.20
2017-09-22T18:27:45.913Z,12.20
2017-09-22T18:30:12.371Z,12.20
2017-09-22T18:32:38.777Z,12.20
2017-09-22T18:35:05.234Z,12.10
2017-09-22T18:37:31.608Z,12.00
2017-09-22T18:39:59.814Z,11.60
2017-09-22T18:42:26.245Z,11.60
2017-09-22T18:44:52.699Z,11.50
2017-09-22T18:47:19.165Z,11.40
2017-09-22T18:49:47.103Z,11.30
2017-09-22T18:52:14.331Z,11.30
2017-09-22T18:54:40.862Z,11.20
2017-09-22T18:57:07.312Z,11.20
2017-09-22T18:59:33.719Z,11.20
2017-09-22T19:02:00.860Z,11.30
2017-09-22T19:04:28.019Z,11.40
2017-09-22T19:06:54.426Z,11.30
2017-09-22T19:09:21.600Z,11.30
2017-09-22T19:11:48.760Z,11.20
2017-09-22T19:14:15.183Z,11.20
2017-09-22T19:16:41.596Z,11.10
2017-09-22T19:19:08.800Z,10.80
2017-09-22T19:21:35.229Z,10.70
2017-09-22T19:24:01.732Z,10.70
2017-09-22T19:26:28.181Z,10.70
2017-09-22T19:28:54.605Z,10.80
2017-09-22T19:31:21.070Z,10.80
2017-09-22T19:33:47.578Z,10.70
2017-09-22T19:36:14.014Z,10.70
2017-09-22T19:38:40.447Z,10.80
2017-09-22T19:41:06.877Z,10.90
2017-09-22T19:43:33.339Z,10.90
2017-09-22T19:45:59.761Z,10.80
2017-09-22T19:48:26.154Z,10.80
2017-09-22T19:50:53.303Z,10.50
2017-09-22T19:53:19.686Z,10.50
2017-09-22T19:55:46.117Z,10.60
2017-09-22T19:58:12.616Z,10.50
2017-09-22T20:00:39.112Z,10.40
2017-09-22T20:03:06.974Z,10.20
2017-09-22T20:05:33.374Z,10.20
2017-09-22T20:07:59.785Z,10.20
2017-09-22T20:10:26.937Z,10.00
2017-09-22T20:12:53.365Z,9.90
2017-09-22T20:15:19.834Z,10.10
2017-09-22T20:17:46.261Z,10.00
2017-09-22T20:20:12.672Z,10.10
2017-09-22T20:22:39.073Z,10.20
2017-09-22T20:25:05.475Z,10.20
2017-09-22T20:27:31.870Z,10.20
2017-09-22T20:29:58.261Z,10.20
2017-09-22T20:32:25.474Z,10.10
2017-09-22T20:34:51.881Z,10.10
2017-09-22T20:37:19.045Z,10.20
2017-09-22T20:39:45.435Z,10.20
2017-09-22T20:42:12.601Z,10.10
2017-09-22T20:44:39.748Z,10.20
2017-09-22T20:47:06.912Z,10.20
2017-09-22T20:49:33.335Z,10.10
2017-09-22T20:52:00.499Z,10.10
2017-09-22T20:54:26.902Z,10.10
2017-09-22T20:56:53.287Z,10.10
2017-09-22T20:59:19.697Z,10.00
2017-09-22T21:01:46.096Z,10.00
2017-09-22T21:04:12.508Z,9.90
2017-09-22T21:06:38.928Z,9.80
2017-09-22T21:09:05.320Z,9.80
2017-09-22T21:11:31.737Z,9.70
2017-09-22T21:13:58.940Z,9.60
2017-09-22T21:16:25.336Z,9.60
2017-09-22T21:18:51.753Z,9.60
2017-09-22T21:21:18.927Z,9.60
2017-09-22T21:23:45.354Z,9.50
2017-09-22T21:26:11.758Z,9.50
2017-09-22T21:28:38.158Z,9.40
2017-09-22T21:31:04.518Z,9.40
2017-09-22T21:33:30.920Z,9.40
2017-09-22T21:35:57.321Z,9.40
2017-09-22T21:38:23.721Z,9.40
2017-09-22T21:40:50.124Z,9.30
2017-09-22T21:43:16.528Z,9.30
2017-09-22T21:45:42.948Z,9.30
2017-09-22T21:48:09.374Z,9.40
2017-09-22T21:50:35.795Z,9.40
2017-09-22T21:53:02.954Z,9.50
2017-09-22T21:55:30.769Z,9.40
2017-09-22T21:57:57.236Z,9.40
2017-09-22T22:00:24.436Z,9.30
2017-09-22T22:02:50.839Z,9.30
2017-09-22T22:05:23.316Z,9.30
2017-09-22T22:07:49.753Z,9.30
2017-09-22T22:10:16.132Z,9.30
2017-09-22T22:12:42.558Z,9.30
2017-09-22T22:15:10.602Z,9.40
2017-09-22T22:17:37.025Z,9.40
2017-09-22T22:20:03.455Z,9.40
2017-09-22T22:22:29.851Z,9.40
2017-09-22T22:24:57.003Z,9.40
2017-09-22T22:27:23.381Z,9.40
2017-09-22T22:29:49.780Z,9.50
2017-09-22T22:32:16.918Z,9.40
2017-09-22T22:34:44.056Z,9.30
2017-09-22T22:37:12.008Z,9.30
2017-09-22T22:39:38.406Z,9.20
2017-09-22T22:42:04.788Z,9.30
2017-09-22T22:44:32.681Z,9.40
2017-09-22T22:46:59.830Z,9.40
2017-09-22T22:49:26.976Z,9.40
2017-09-22T22:51:54.117Z,9.30
2017-09-22T22:54:20.513Z,9.30
2017-09-22T22:56:46.922Z,9.20
2017-09-22T22:59:13.340Z,9.30
2017-09-22T23:01:40.468Z,9.30
2017-09-22T23:04:07.638Z,9.30
2017-09-22T23:06:34.071Z,9.20
2017-09-22T23:09:00.551Z,9.20
2017-09-22T23:11:26.951Z,9.10
2017-09-22T23:13:53.400Z,9.10
2017-09-22T23:16:19.776Z,9.10
2017-09-22T23:18:46.920Z,9.00
2017-09-22T23:21:14.817Z,8.90
2017-09-22T23:23:42.020Z,8.80
2017-09-22T23:26:08.566Z,8.80
2017-09-22T23:28:36.448Z,8.80
2017-09-22T23:31:02.845Z,8.80
2017-09-22T23:33:29.238Z,8.80
2017-09-22T23:35:55.634Z,8.60
2017-09-22T23:38:22.033Z,8.30
2017-09-22T23:40:48.477Z,8.30
2017-09-22T23:43:14.998Z,8.30
2017-09-22T23:45:41.383Z,8.20
2017-09-22T23:48:08.509Z,8.30
2017-09-22T23:50:36.409Z,8.20
2017-09-22T23:53:03.532Z,8.20
2017-09-22T23:55:31.469Z,8.00
2017-09-22T23:57:57.865Z,8.10
